createdAt,value
2023-03-16T00:01:27.576Z,12.29
2023-03-16T00:06:30.414Z,12.20
2023-03-16T00:11:32.628Z,11.97
2023-03-16T00:16:35.754Z,11.77
2023-03-16T00:21:37.938Z,11.77
2023-03-16T00:26:40.081Z,11.91
2023-03-16T00:31:45.682Z,12.02
2023-03-16T00:36:48.345Z,11.92
2023-03-16T00:41:50.504Z,11.95
2023-03-16T00:46:53.333Z,11.76
2023-03-16T00:51:55.457Z,11.87
2023-03-16T00:56:57.998Z,11.82
2023-03-16T01:02:15.598Z,11.68
2023-03-16T01:07:18.070Z,11.64
2023-03-16T01:12:20.611Z,11.82
2023-03-16T01:17:24.333Z,11.92
2023-03-16T01:22:27.238Z,11.56
2023-03-16T01:27:29.423Z,11.65
2023-03-16T01:32:31.716Z,11.76
2023-03-16T01:37:33.898Z,11.52
2023-03-16T01:42:47.310Z,11.32
2023-03-16T01:47:50.275Z,11.30
2023-03-16T01:52:52.640Z,11.43
2023-03-16T01:57:55.884Z,11.68
2023-03-16T02:03:06.226Z,11.72
2023-03-16T02:08:10.071Z,11.54
2023-03-16T02:13:12.626Z,11.62
2023-03-16T02:18:15.473Z,11.84
2023-03-16T02:23:21.406Z,11.99
2023-03-16T02:28:58.492Z,11.89
2023-03-16T02:34:03.254Z,11.71
2023-03-16T02:39:06.258Z,11.79
2023-03-16T02:44:19.482Z,11.90
2023-03-16T02:49:27.067Z,11.78
2023-03-16T02:54:29.228Z,11.71
2023-03-16T02:59:31.615Z,11.82
2023-03-16T03:04:33.879Z,11.83
2023-03-16T03:09:36.077Z,11.81
2023-03-16T03:14:39.068Z,11.85
2023-03-16T03:19:41.546Z,11.93
2023-03-16T03:24:44.175Z,12.04
2023-03-16T03:29:46.379Z,12.19
2023-03-16T03:34:48.494Z,12.13
2023-03-16T03:39:50.718Z,11.94
2023-03-16T03:44:53.481Z,12.05
2023-03-16T03:49:55.849Z,11.74
2023-03-16T03:54:58.020Z,11.88
2023-03-16T04:00:00.243Z,12.07
2023-03-16T04:05:02.449Z,11.75
2023-03-16T04:10:05.484Z,11.87
2023-03-16T04:15:07.985Z,11.77
2023-03-16T04:20:14.848Z,11.75
2023-03-16T04:25:19.250Z,11.84
2023-03-16T04:30:21.536Z,11.87
2023-03-16T04:35:23.644Z,11.89
2023-03-16T04:40:26.731Z,12.01
2023-03-16T04:45:29.057Z,12.07
2023-03-16T04:50:31.441Z,12.20
2023-03-16T04:55:34.007Z,12.13
2023-03-16T05:00:36.112Z,11.92
2023-03-16T05:05:40.115Z,12.05
2023-03-16T05:10:42.599Z,12.03
2023-03-16T05:15:44.808Z,11.93
2023-03-16T05:20:49.448Z,12.11
2023-03-16T05:25:51.870Z,12.09
2023-03-16T05:30:54.134Z,11.88
2023-03-16T05:35:58.363Z,12.00
2023-03-16T05:41:04.653Z,12.05
2023-03-16T05:46:07.948Z,12.14
2023-03-16T05:51:10.136Z,12.07
2023-03-16T05:56:12.517Z,12.31
2023-03-16T06:01:15.931Z,12.28
2023-03-16T06:06:19.685Z,12.12
2023-03-16T06:11:21.984Z,12.35
2023-03-16T06:16:24.924Z,12.53
2023-03-16T06:21:27.248Z,12.51
2023-03-16T06:26:29.508Z,12.33
2023-03-16T06:31:31.673Z,12.40
2023-03-16T06:36:34.355Z,12.52
2023-03-16T06:41:36.506Z,12.10
2023-03-16T06:46:38.838Z,12.29
2023-03-16T06:51:42.169Z,12.27
2023-03-16T06:56:46.403Z,12.48
2023-03-16T07:01:50.573Z,12.33
2023-03-16T07:06:52.822Z,12.37
2023-03-16T07:11:54.977Z,12.46
2023-03-16T07:16:57.290Z,12.34
2023-03-16T07:21:59.814Z,12.71
2023-03-16T07:27:02.872Z,12.58
2023-03-16T07:32:05.480Z,12.42
2023-03-16T07:37:08.946Z,12.19
2023-03-16T07:42:11.072Z,12.18
2023-03-16T07:47:14.000Z,12.47
2023-03-16T07:52:16.178Z,12.42
2023-03-16T07:57:18.445Z,12.15
2023-03-16T08:02:22.133Z,12.22
2023-03-16T08:07:24.799Z,11.98
2023-03-16T08:12:27.137Z,12.10
2023-03-16T08:17:29.428Z,12.46
2023-03-16T08:22:31.512Z,12.22
2023-03-16T08:27:34.717Z,12.26
2023-03-16T08:32:38.132Z,12.21
2023-03-16T08:37:41.742Z,12.19
2023-03-16T08:42:45.295Z,12.38
2023-03-16T08:47:47.426Z,12.47
2023-03-16T08:52:49.651Z,12.33
2023-03-16T08:57:52.641Z,12.32
2023-03-16T09:02:55.813Z,12.42
2023-03-16T09:07:58.035Z,12.37
2023-03-16T09:13:00.764Z,12.51
2023-03-16T09:18:04.656Z,12.48
2023-03-16T09:23:06.881Z,12.49
2023-03-16T09:28:09.196Z,12.77
2023-03-16T09:33:11.491Z,12.78
2023-03-16T09:38:14.613Z,12.80
2023-03-16T09:43:38.617Z,12.84
2023-03-16T09:48:41.542Z,12.74
2023-03-16T09:53:45.994Z,12.85
2023-03-16T09:58:48.349Z,12.82
2023-03-16T10:04:12.660Z,12.76
2023-03-16T10:09:36.519Z,12.86
2023-03-16T10:15:22.664Z,13.11
2023-03-16T10:20:27.869Z,13.13
2023-03-16T10:25:49.638Z,13.03
2023-03-16T10:30:55.777Z,13.00
2023-03-16T10:36:29.995Z,12.87
2023-03-16T10:41:35.563Z,12.84
2023-03-16T10:46:48.904Z,12.96
2023-03-16T10:51:52.599Z,12.93
2023-03-16T10:56:56.657Z,12.73
2023-03-16T11:01:58.775Z,12.68
2023-03-16T11:07:01.760Z,12.47
2023-03-16T11:12:30.589Z,12.82
2023-03-16T11:17:40.184Z,12.87
2023-03-16T11:22:48.859Z,12.81
2023-03-16T11:28:26.366Z,12.97
2023-03-16T11:33:31.393Z,12.81
2023-03-16T11:38:44.542Z,13.01
2023-03-16T11:43:53.081Z,12.93
2023-03-16T11:49:19.443Z,12.93
2023-03-16T11:54:44.753Z,12.59
2023-03-16T12:00:24.853Z,12.90
2023-03-16T12:05:49.505Z,12.99
2023-03-16T12:11:05.036Z,12.99
2023-03-16T12:16:39.029Z,12.69
2023-03-16T12:22:01.879Z,12.60
2023-03-16T12:27:07.175Z,12.98
2023-03-16T12:32:22.865Z,13.15
2023-03-16T12:37:47.867Z,12.98
2023-03-16T12:43:11.033Z,12.85
2023-03-16T12:48:27.506Z,13.00
2023-03-16T12:53:44.054Z,12.85
2023-03-16T12:58:49.795Z,12.83
2023-03-16T13:04:02.462Z,12.85
2023-03-16T13:09:08.431Z,13.35
2023-03-16T13:14:32.849Z,13.30
2023-03-16T13:19:38.437Z,13.26
2023-03-16T13:24:53.904Z,13.68
2023-03-16T13:30:02.334Z,13.86
2023-03-16T13:35:06.366Z,13.87
2023-03-16T13:45:54.252Z,13.43
2023-03-16T13:50:58.199Z,13.48
2023-03-16T13:56:02.620Z,13.57
2023-03-16T14:01:19.619Z,13.48
2023-03-16T14:06:26.331Z,13.81
2023-03-16T14:11:28.908Z,13.63
2023-03-16T14:16:32.326Z,13.41
2023-03-16T14:21:35.957Z,13.53
2023-03-16T14:26:46.721Z,13.79
2023-03-16T14:31:48.990Z,13.58
2023-03-16T14:36:51.461Z,13.48
2023-03-16T14:41:53.881Z,13.46
2023-03-16T14:47:00.298Z,13.56
2023-03-16T14:52:32.429Z,13.68
2023-03-16T14:57:35.198Z,13.66
2023-03-16T15:02:37.490Z,13.54
2023-03-16T15:07:41.557Z,13.50
2023-03-16T15:12:54.315Z,13.39
2023-03-16T15:17:56.581Z,13.46
2023-03-16T15:22:59.903Z,13.48
2023-03-16T15:28:03.189Z,13.25
2023-03-16T15:33:06.379Z,13.23
2023-03-16T15:38:22.890Z,13.17
2023-03-16T15:43:29.188Z,13.38
2023-03-16T15:48:32.190Z,13.23
2023-03-16T15:53:42.120Z,13.23
2023-03-16T15:58:47.019Z,12.98
2023-03-16T16:03:50.284Z,12.92
2023-03-16T16:08:52.734Z,12.84
2023-03-16T16:13:58.476Z,12.86
2023-03-16T16:19:01.031Z,12.79
2023-03-16T16:24:03.588Z,12.70
2023-03-16T16:29:17.295Z,12.75
2023-03-16T16:34:22.608Z,12.71
2023-03-16T16:39:25.031Z,12.69
2023-03-16T16:44:34.422Z,12.71
2023-03-16T16:49:38.403Z,12.31
2023-03-16T16:54:40.567Z,12.20
2023-03-16T16:59:45.947Z,12.43
2023-03-16T17:04:48.292Z,12.32
2023-03-16T17:09:51.293Z,12.24
2023-03-16T17:14:54.069Z,12.09
2023-03-16T17:19:56.217Z,11.95
2023-03-16T17:24:58.956Z,12.27
2023-03-16T17:30:01.242Z,12.14
2023-03-16T17:35:06.492Z,12.16
2023-03-16T17:40:18.274Z,11.91
2023-03-16T17:45:25.084Z,11.95
2023-03-16T17:50:30.108Z,11.93
2023-03-16T17:55:32.704Z,11.96
2023-03-16T18:00:37.057Z,11.91
2023-03-16T18:05:40.052Z,11.75
2023-03-16T18:10:43.999Z,11.61
2023-03-16T18:15:47.500Z,11.80
2023-03-16T18:20:52.433Z,11.36
2023-03-16T18:25:57.009Z,11.48
2023-03-16T18:30:59.915Z,11.35
2023-03-16T18:36:05.357Z,11.27
2023-03-16T18:41:28.551Z,11.28
2023-03-16T18:46:36.757Z,11.38
2023-03-16T18:51:39.486Z,11.04
2023-03-16T18:56:41.930Z,10.95
2023-03-16T19:01:45.644Z,11.06
2023-03-16T19:06:49.672Z,11.14
2023-03-16T19:11:52.441Z,11.06
2023-03-16T19:16:55.937Z,11.02
2023-03-16T19:22:15.609Z,10.93
2023-03-16T19:27:24.223Z,10.92
2023-03-16T19:32:27.027Z,10.91
2023-03-16T19:37:30.364Z,10.65
2023-03-16T19:42:37.332Z,10.60
2023-03-16T19:47:39.506Z,10.54
2023-03-16T19:52:42.286Z,10.55
2023-03-16T19:57:45.889Z,10.84
2023-03-16T20:02:48.779Z,10.60
2023-03-16T20:07:51.106Z,10.48
2023-03-16T20:13:02.021Z,10.52
2023-03-16T20:18:05.570Z,10.57
2023-03-16T20:23:28.706Z,10.72
2023-03-16T20:28:36.681Z,10.63
2023-03-16T20:33:38.880Z,10.46
2023-03-16T20:38:41.749Z,10.34
2023-03-16T20:43:44.692Z,10.13
2023-03-16T20:48:47.335Z,10.50
2023-03-16T20:53:50.768Z,10.36
2023-03-16T20:58:56.719Z,10.33
2023-03-16T21:04:00.402Z,10.14
2023-03-16T21:09:03.713Z,10.26
2023-03-16T21:14:12.776Z,10.51
2023-03-16T21:19:18.060Z,10.54
2023-03-16T21:24:20.730Z,10.42
2023-03-16T21:29:24.504Z,10.37
2023-03-16T21:34:37.709Z,10.14
2023-03-16T21:39:40.697Z,10.28
2023-03-16T21:44:42.946Z,10.44
2023-03-16T21:49:45.042Z,10.14
2023-03-16T21:54:47.872Z,10.11
2023-03-16T21:59:50.773Z,10.12
2023-03-16T22:04:53.972Z,10.02
2023-03-16T22:09:56.257Z,10.16
2023-03-16T22:14:58.469Z,10.16
2023-03-16T22:20:00.639Z,10.02
2023-03-16T22:25:04.538Z,10.09
2023-03-16T22:30:09.885Z,10.04
2023-03-16T22:35:26.843Z,10.22
2023-03-16T22:40:32.592Z,10.29
2023-03-16T22:45:36.336Z,10.27
2023-03-16T22:50:38.738Z,10.09
2023-03-16T22:55:41.320Z,10.08
2023-03-16T23:00:45.073Z,10.08
2023-03-16T23:05:47.394Z,9.99
2023-03-16T23:10:51.903Z,10.18
2023-03-16T23:15:55.648Z,10.24
2023-03-16T23:20:57.785Z,10.26
2023-03-16T23:26:00.594Z,10.21
2023-03-16T23:31:03.174Z,10.34
2023-03-16T23:36:14.572Z,10.19
2023-03-16T23:41:21.978Z,10.06
2023-03-16T23:46:26.424Z,9.85
2023-03-16T23:51:31.473Z,9.96
2023-03-16T23:56:34.218Z,10.16
